sensor_id;sensor_type;location;lat;lon;timestamp;P1;durP1;ratioP1;P2;durP2;ratioP2
70467;SDS011;57934;51.532;7.684;2024-02-26T00:01:44;6.13;;;2.90;;
70467;SDS011;57934;51.532;7.684;2024-02-26T00:04:13;2.95;;;2.65;;
70467;SDS011;57934;51.532;7.684;2024-02-26T00:06:39;3.47;;;2.95;;
70467;SDS011;57934;51.532;7.684;2024-02-26T00:09:09;4.68;;;2.92;;
70467;SDS011;57934;51.532;7.684;2024-02-26T00:11:35;5.50;;;2.78;;
70467;SDS011;57934;51.532;7.684;2024-02-26T00:14:02;3.15;;;2.83;;
70467;SDS011;57934;51.532;7.684;2024-02-26T00:16:29;4.75;;;2.97;;
70467;SDS011;57934;51.532;7.684;2024-02-26T00:18:55;4.72;;;3.05;;
70467;SDS011;57934;51.532;7.684;2024-02-26T00:21:21;5.15;;;2.70;;
70467;SDS011;57934;51.532;7.684;2024-02-26T00:23:49;4.10;;;3.15;;
70467;SDS011;57934;51.532;7.684;2024-02-26T00:26:16;3.15;;;2.80;;
70467;SDS011;57934;51.532;7.684;2024-02-26T00:28:43;4.00;;;2.78;;
70467;SDS011;57934;51.532;7.684;2024-02-26T00:31:09;4.07;;;2.78;;
70467;SDS011;57934;51.532;7.684;2024-02-26T00:33:35;3.85;;;2.80;;
70467;SDS011;57934;51.532;7.684;2024-02-26T00:36:01;3.40;;;3.10;;
70467;SDS011;57934;51.532;7.684;2024-02-26T00:38:27;3.58;;;2.50;;
70467;SDS011;57934;51.532;7.684;2024-02-26T00:40:53;3.45;;;3.15;;
70467;SDS011;57934;51.532;7.684;2024-02-26T00:43:19;3.25;;;2.33;;
70467;SDS011;57934;51.532;7.684;2024-02-26T00:45:46;2.60;;;2.40;;
70467;SDS011;57934;51.532;7.684;2024-02-26T00:48:12;4.47;;;2.40;;
70467;SDS011;57934;51.532;7.684;2024-02-26T00:50:39;2.75;;;2.08;;
70467;SDS011;57934;51.532;7.684;2024-02-26T00:53:05;4.13;;;2.00;;
70467;SDS011;57934;51.532;7.684;2024-02-26T00:55:32;3.22;;;1.77;;
70467;SDS011;57934;51.532;7.684;2024-02-26T00:57:58;2.28;;;1.73;;
70467;SDS011;57934;51.532;7.684;2024-02-26T01:00:24;2.70;;;1.65;;
70467;SDS011;57934;51.532;7.684;2024-02-26T01:02:50;2.42;;;1.85;;
70467;SDS011;57934;51.532;7.684;2024-02-26T01:05:16;2.75;;;1.75;;
70467;SDS011;57934;51.532;7.684;2024-02-26T01:07:42;1.70;;;1.60;;
70467;SDS011;57934;51.532;7.684;2024-02-26T01:10:08;2.50;;;1.83;;
70467;SDS011;57934;51.532;7.684;2024-02-26T01:12:35;2.00;;;1.77;;
70467;SDS011;57934;51.532;7.684;2024-02-26T01:15:01;2.03;;;1.83;;
70467;SDS011;57934;51.532;7.684;2024-02-26T01:17:31;2.58;;;1.55;;
70467;SDS011;57934;51.532;7.684;2024-02-26T01:19:57;3.33;;;1.90;;
70467;SDS011;57934;51.532;7.684;2024-02-26T01:22:23;2.20;;;2.00;;
70467;SDS011;57934;51.532;7.684;2024-02-26T01:24:49;1.90;;;1.80;;
70467;SDS011;57934;51.532;7.684;2024-02-26T01:27:16;2.95;;;1.77;;
70467;SDS011;57934;51.532;7.684;2024-02-26T01:29:42;2.70;;;2.00;;
70467;SDS011;57934;51.532;7.684;2024-02-26T01:32:08;3.47;;;2.03;;
70467;SDS011;57934;51.532;7.684;2024-02-26T01:34:35;1.92;;;1.73;;
70467;SDS011;57934;51.532;7.684;2024-02-26T01:37:02;2.83;;;1.92;;
70467;SDS011;57934;51.532;7.684;2024-02-26T01:39:29;2.67;;;2.00;;
70467;SDS011;57934;51.532;7.684;2024-02-26T01:41:55;2.25;;;1.85;;
70467;SDS011;57934;51.532;7.684;2024-02-26T01:44:22;2.53;;;1.70;;
70467;SDS011;57934;51.532;7.684;2024-02-26T01:46:48;2.60;;;1.83;;
70467;SDS011;57934;51.532;7.684;2024-02-26T01:49:15;2.10;;;1.90;;
70467;SDS011;57934;51.532;7.684;2024-02-26T01:51:41;2.22;;;1.70;;
70467;SDS011;57934;51.532;7.684;2024-02-26T01:54:09;2.03;;;1.85;;
70467;SDS011;57934;51.532;7.684;2024-02-26T01:56:36;1.58;;;1.33;;
70467;SDS011;57934;51.532;7.684;2024-02-26T01:59:03;2.13;;;1.92;;
70467;SDS011;57934;51.532;7.684;2024-02-26T02:01:31;2.10;;;1.70;;
70467;SDS011;57934;51.532;7.684;2024-02-26T02:04:00;4.65;;;1.75;;
70467;SDS011;57934;51.532;7.684;2024-02-26T02:06:26;1.98;;;1.75;;
70467;SDS011;57934;51.532;7.684;2024-02-26T02:08:56;1.73;;;1.63;;
70467;SDS011;57934;51.532;7.684;2024-02-26T02:11:22;5.93;;;3.95;;
70467;SDS011;57934;51.532;7.684;2024-02-26T02:13:48;2.38;;;1.88;;
70467;SDS011;57934;51.532;7.684;2024-02-26T02:16:14;2.25;;;1.83;;
70467;SDS011;57934;51.532;7.684;2024-02-26T02:18:40;1.85;;;1.70;;
70467;SDS011;57934;51.532;7.684;2024-02-26T02:21:06;2.72;;;2.00;;
70467;SDS011;57934;51.532;7.684;2024-02-26T02:23:32;2.33;;;1.67;;
70467;SDS011;57934;51.532;7.684;2024-02-26T02:25:59;2.10;;;1.90;;
70467;SDS011;57934;51.532;7.684;2024-02-26T02:28:25;2.08;;;1.88;;
70467;SDS011;57934;51.532;7.684;2024-02-26T02:30:53;1.95;;;1.75;;
70467;SDS011;57934;51.532;7.684;2024-02-26T02:33:20;1.77;;;1.67;;
70467;SDS011;57934;51.532;7.684;2024-02-26T02:35:47;2.65;;;1.95;;
70467;SDS011;57934;51.532;7.684;2024-02-26T02:38:13;4.25;;;1.90;;
70467;SDS011;57934;51.532;7.684;2024-02-26T02:40:39;1.77;;;1.67;;
70467;SDS011;57934;51.532;7.684;2024-02-26T02:43:05;1.77;;;1.67;;
70467;SDS011;57934;51.532;7.684;2024-02-26T02:45:31;2.20;;;1.90;;
70467;SDS011;57934;51.532;7.684;2024-02-26T02:47:58;3.83;;;1.73;;
70467;SDS011;57934;51.532;7.684;2024-02-26T02:50:24;3.10;;;1.70;;
70467;SDS011;57934;51.532;7.684;2024-02-26T02:52:50;2.47;;;1.63;;
70467;SDS011;57934;51.532;7.684;2024-02-26T02:55:16;2.00;;;1.80;;
70467;SDS011;57934;51.532;7.684;2024-02-26T02:57:42;1.48;;;1.38;;
70467;SDS011;57934;51.532;7.684;2024-02-26T03:00:10;3.15;;;1.58;;
70467;SDS011;57934;51.532;7.684;2024-02-26T03:02:37;4.25;;;1.73;;
70467;SDS011;57934;51.532;7.684;2024-02-26T03:05:04;1.52;;;1.40;;
70467;SDS011;57934;51.532;7.684;2024-02-26T03:07:30;1.63;;;1.52;;
70467;SDS011;57934;51.532;7.684;2024-02-26T03:09:56;1.77;;;1.67;;
70467;SDS011;57934;51.532;7.684;2024-02-26T03:12:23;1.60;;;1.50;;
70467;SDS011;57934;51.532;7.684;2024-02-26T03:14:49;1.38;;;1.27;;
70467;SDS011;57934;51.532;7.684;2024-02-26T03:17:15;2.75;;;1.60;;
70467;SDS011;57934;51.532;7.684;2024-02-26T03:19:41;3.53;;;1.52;;
70467;SDS011;57934;51.532;7.684;2024-02-26T03:22:07;2.03;;;1.50;;
70467;SDS011;57934;51.532;7.684;2024-02-26T03:24:33;1.75;;;1.63;;
70467;SDS011;57934;51.532;7.684;2024-02-26T03:26:59;2.47;;;1.80;;
70467;SDS011;57934;51.532;7.684;2024-02-26T03:29:25;3.00;;;1.42;;
70467;SDS011;57934;51.532;7.684;2024-02-26T03:31:51;2.42;;;1.60;;
70467;SDS011;57934;51.532;7.684;2024-02-26T03:34:17;1.70;;;1.30;;
70467;SDS011;57934;51.532;7.684;2024-02-26T03:36:45;1.92;;;1.40;;
70467;SDS011;57934;51.532;7.684;2024-02-26T03:39:11;1.60;;;1.50;;
70467;SDS011;57934;51.532;7.684;2024-02-26T03:41:37;2.15;;;1.40;;
70467;SDS011;57934;51.532;7.684;2024-02-26T03:44:03;1.95;;;1.52;;
70467;SDS011;57934;51.532;7.684;2024-02-26T03:46:30;1.83;;;1.65;;
70467;SDS011;57934;51.532;7.684;2024-02-26T03:48:56;2.90;;;1.48;;
70467;SDS011;57934;51.532;7.684;2024-02-26T03:51:22;1.58;;;1.45;;
70467;SDS011;57934;51.532;7.684;2024-02-26T03:53:48;2.42;;;1.58;;
70467;SDS011;57934;51.532;7.684;2024-02-26T03:56:14;2.20;;;1.40;;
70467;SDS011;57934;51.532;7.684;2024-02-26T03:58:40;1.70;;;1.60;;
70467;SDS011;57934;51.532;7.684;2024-02-26T04:01:07;1.58;;;1.40;;
70467;SDS011;57934;51.532;7.684;2024-02-26T04:03:34;1.50;;;1.40;;
70467;SDS011;57934;51.532;7.684;2024-02-26T04:06:00;2.08;;;1.88;;
70467;SDS011;57934;51.532;7.684;2024-02-26T04:08:28;2.35;;;1.50;;
70467;SDS011;57934;51.532;7.684;2024-02-26T04:10:54;4.80;;;1.73;;
70467;SDS011;57934;51.532;7.684;2024-02-26T04:13:20;2.15;;;1.67;;
70467;SDS011;57934;51.532;7.684;2024-02-26T04:15:46;3.38;;;1.88;;
70467;SDS011;57934;51.532;7.684;2024-02-26T04:18:13;2.42;;;2.22;;
70467;SDS011;57934;51.532;7.684;2024-02-26T04:20:39;2.10;;;1.85;;
70467;SDS011;57934;51.532;7.684;2024-02-26T04:23:08;2.45;;;1.50;;
70467;SDS011;57934;51.532;7.684;2024-02-26T04:25:34;2.05;;;1.85;;
70467;SDS011;57934;51.532;7.684;2024-02-26T04:28:00;3.60;;;1.92;;
70467;SDS011;57934;51.532;7.684;2024-02-26T04:30:26;2.78;;;2.25;;
70467;SDS011;57934;51.532;7.684;2024-02-26T04:32:52;2.30;;;1.95;;
70467;SDS011;57934;51.532;7.684;2024-02-26T04:35:18;3.22;;;2.15;;
70467;SDS011;57934;51.532;7.684;2024-02-26T04:37:44;1.90;;;1.70;;
70467;SDS011;57934;51.532;7.684;2024-02-26T04:40:10;1.98;;;1.77;;
70467;SDS011;57934;51.532;7.684;2024-02-26T04:42:37;2.10;;;1.90;;
70467;SDS011;57934;51.532;7.684;2024-02-26T04:45:03;4.85;;;2.20;;
70467;SDS011;57934;51.532;7.684;2024-02-26T04:47:29;1.92;;;1.75;;
70467;SDS011;57934;51.532;7.684;2024-02-26T04:49:55;2.35;;;2.00;;
70467;SDS011;57934;51.532;7.684;2024-02-26T04:52:22;2.53;;;1.80;;
70467;SDS011;57934;51.532;7.684;2024-02-26T04:54:48;2.00;;;1.80;;
70467;SDS011;57934;51.532;7.684;2024-02-26T04:57:14;2.83;;;1.90;;
70467;SDS011;57934;51.532;7.684;2024-02-26T04:59:40;2.25;;;1.63;;
70467;SDS011;57934;51.532;7.684;2024-02-26T05:02:08;3.33;;;2.25;;
70467;SDS011;57934;51.532;7.684;2024-02-26T05:04:34;3.53;;;1.85;;
70467;SDS011;57934;51.532;7.684;2024-02-26T05:07:00;1.73;;;1.60;;
70467;SDS011;57934;51.532;7.684;2024-02-26T05:09:26;1.83;;;1.70;;
70467;SDS011;57934;51.532;7.684;2024-02-26T05:11:52;2.03;;;1.83;;
70467;SDS011;57934;51.532;7.684;2024-02-26T05:14:18;2.03;;;1.80;;
70467;SDS011;57934;51.532;7.684;2024-02-26T05:16:44;4.15;;;1.70;;
70467;SDS011;57934;51.532;7.684;2024-02-26T05:19:10;2.95;;;1.92;;
70467;SDS011;57934;51.532;7.684;2024-02-26T05:21:36;2.92;;;1.65;;
70467;SDS011;57934;51.532;7.684;2024-02-26T05:24:03;1.98;;;1.70;;
70467;SDS011;57934;51.532;7.684;2024-02-26T05:26:29;2.47;;;1.48;;
70467;SDS011;57934;51.532;7.684;2024-02-26T05:28:55;3.63;;;1.60;;
70467;SDS011;57934;51.532;7.684;2024-02-26T05:31:25;2.50;;;1.55;;
70467;SDS011;57934;51.532;7.684;2024-02-26T05:33:52;1.88;;;1.77;;
70467;SDS011;57934;51.532;7.684;2024-02-26T05:36:19;2.00;;;1.88;;
70467;SDS011;57934;51.532;7.684;2024-02-26T05:38:48;1.92;;;1.75;;
70467;SDS011;57934;51.532;7.684;2024-02-26T05:41:18;2.97;;;2.05;;
70467;SDS011;57934;51.532;7.684;2024-02-26T05:43:49;2.58;;;1.90;;
70467;SDS011;57934;51.532;7.684;2024-02-26T05:46:19;3.83;;;2.50;;
70467;SDS011;57934;51.532;7.684;2024-02-26T05:48:50;2.03;;;1.92;;
70467;SDS011;57934;51.532;7.684;2024-02-26T05:51:18;2.83;;;2.08;;
70467;SDS011;57934;51.532;7.684;2024-02-26T05:53:44;2.50;;;2.08;;
70467;SDS011;57934;51.532;7.684;2024-02-26T05:56:12;3.65;;;2.10;;
70467;SDS011;57934;51.532;7.684;2024-02-26T05:58:38;3.13;;;2.60;;
70467;SDS011;57934;51.532;7.684;2024-02-26T06:01:04;2.60;;;2.38;;
70467;SDS011;57934;51.532;7.684;2024-02-26T06:03:30;2.72;;;2.53;;
70467;SDS011;57934;51.532;7.684;2024-02-26T06:05:56;3.38;;;2.88;;
70467;SDS011;57934;51.532;7.684;2024-02-26T06:08:23;3.13;;;2.60;;
70467;SDS011;57934;51.532;7.684;2024-02-26T06:10:49;3.47;;;2.90;;
70467;SDS011;57934;51.532;7.684;2024-02-26T06:13:15;3.55;;;3.25;;
70467;SDS011;57934;51.532;7.684;2024-02-26T06:15:41;4.05;;;3.00;;
70467;SDS011;57934;51.532;7.684;2024-02-26T06:18:07;3.90;;;3.53;;
70467;SDS011;57934;51.532;7.684;2024-02-26T06:20:34;3.70;;;3.33;;
70467;SDS011;57934;51.532;7.684;2024-02-26T06:23:00;4.40;;;3.22;;
70467;SDS011;57934;51.532;7.684;2024-02-26T06:25:26;3.85;;;3.20;;
70467;SDS011;57934;51.532;7.684;2024-02-26T06:27:52;6.50;;;3.40;;
70467;SDS011;57934;51.532;7.684;2024-02-26T06:30:18;3.95;;;3.45;;
70467;SDS011;57934;51.532;7.684;2024-02-26T06:32:44;4.20;;;3.60;;
70467;SDS011;57934;51.532;7.684;2024-02-26T06:35:10;3.90;;;3.50;;
70467;SDS011;57934;51.532;7.684;2024-02-26T06:37:37;4.43;;;3.60;;
70467;SDS011;57934;51.532;7.684;2024-02-26T06:40:03;4.65;;;4.22;;
70467;SDS011;57934;51.532;7.684;2024-02-26T06:42:32;4.05;;;3.65;;
70467;SDS011;57934;51.532;7.684;2024-02-26T06:44:58;4.35;;;3.65;;
70467;SDS011;57934;51.532;7.684;2024-02-26T06:47:24;5.18;;;3.15;;
70467;SDS011;57934;51.532;7.684;2024-02-26T06:49:51;6.80;;;3.85;;
70467;SDS011;57934;51.532;7.684;2024-02-26T06:52:17;8.50;;;3.97;;
70467;SDS011;57934;51.532;7.684;2024-02-26T06:54:44;6.65;;;4.15;;
70467;SDS011;57934;51.532;7.684;2024-02-26T06:57:10;4.82;;;4.18;;
70467;SDS011;57934;51.532;7.684;2024-02-26T06:59:36;4.35;;;3.47;;
70467;SDS011;57934;51.532;7.684;2024-02-26T07:02:03;4.07;;;3.67;;
70467;SDS011;57934;51.532;7.684;2024-02-26T07:04:29;5.35;;;4.07;;
70467;SDS011;57934;51.532;7.684;2024-02-26T07:06:57;3.72;;;3.42;;
70467;SDS011;57934;51.532;7.684;2024-02-26T07:09:23;4.60;;;3.72;;
70467;SDS011;57934;51.532;7.684;2024-02-26T07:11:50;4.82;;;4.32;;
70467;SDS011;57934;51.532;7.684;2024-02-26T07:14:17;6.10;;;4.22;;
70467;SDS011;57934;51.532;7.684;2024-02-26T07:16:43;4.22;;;3.72;;
70467;SDS011;57934;51.532;7.684;2024-02-26T07:19:09;4.75;;;4.00;;
70467;SDS011;57934;51.532;7.684;2024-02-26T07:21:35;6.57;;;4.65;;
70467;SDS011;57934;51.532;7.684;2024-02-26T07:24:01;6.10;;;4.25;;
70467;SDS011;57934;51.532;7.684;2024-02-26T07:26:28;4.30;;;3.90;;
70467;SDS011;57934;51.532;7.684;2024-02-26T07:28:56;7.40;;;4.35;;
70467;SDS011;57934;51.532;7.684;2024-02-26T07:31:22;5.70;;;3.90;;
70467;SDS011;57934;51.532;7.684;2024-02-26T07:33:48;7.55;;;4.70;;
70467;SDS011;57934;51.532;7.684;2024-02-26T07:36:15;4.88;;;4.25;;
70467;SDS011;57934;51.532;7.684;2024-02-26T07:38:41;5.28;;;4.00;;
70467;SDS011;57934;51.532;7.684;2024-02-26T07:41:07;4.47;;;3.88;;
70467;SDS011;57934;51.532;7.684;2024-02-26T07:43:33;4.78;;;4.30;;
70467;SDS011;57934;51.532;7.684;2024-02-26T07:45:59;6.28;;;4.50;;
70467;SDS011;57934;51.532;7.684;2024-02-26T07:48:25;6.18;;;3.85;;
70467;SDS011;57934;51.532;7.684;2024-02-26T07:50:52;5.57;;;4.00;;
70467;SDS011;57934;51.532;7.684;2024-02-26T07:53:18;7.28;;;4.35;;
70467;SDS011;57934;51.532;7.684;2024-02-26T07:55:44;7.45;;;4.00;;
70467;SDS011;57934;51.532;7.684;2024-02-26T07:58:10;6.03;;;3.95;;
70467;SDS011;57934;51.532;7.684;2024-02-26T08:00:36;6.03;;;4.15;;
70467;SDS011;57934;51.532;7.684;2024-02-26T08:03:02;5.43;;;4.50;;
70467;SDS011;57934;51.532;7.684;2024-02-26T08:05:28;9.20;;;5.65;;
70467;SDS011;57934;51.532;7.684;2024-02-26T08:07:55;6.45;;;3.95;;
70467;SDS011;57934;51.532;7.684;2024-02-26T08:10:21;6.22;;;4.05;;
70467;SDS011;57934;51.532;7.684;2024-02-26T08:12:47;4.53;;;3.80;;
70467;SDS011;57934;51.532;7.684;2024-02-26T08:15:13;5.63;;;4.07;;
70467;SDS011;57934;51.532;7.684;2024-02-26T08:17:39;7.70;;;4.10;;
70467;SDS011;57934;51.532;7.684;2024-02-26T08:20:05;5.40;;;3.63;;
70467;SDS011;57934;51.532;7.684;2024-02-26T08:22:32;8.77;;;4.50;;
70467;SDS011;57934;51.532;7.684;2024-02-26T08:24:59;7.13;;;3.95;;
70467;SDS011;57934;51.532;7.684;2024-02-26T08:27:25;6.80;;;3.63;;
70467;SDS011;57934;51.532;7.684;2024-02-26T08:29:51;6.95;;;3.90;;
70467;SDS011;57934;51.532;7.684;2024-02-26T08:32:17;5.28;;;3.45;;
70467;SDS011;57934;51.532;7.684;2024-02-26T08:34:43;4.07;;;3.42;;
70467;SDS011;57934;51.532;7.684;2024-02-26T08:37:10;6.18;;;4.15;;
70467;SDS011;57934;51.532;7.684;2024-02-26T08:39:36;9.40;;;5.70;;
70467;SDS011;57934;51.532;7.684;2024-02-26T08:42:02;5.85;;;3.50;;
70467;SDS011;57934;51.532;7.684;2024-02-26T08:44:28;4.47;;;3.60;;
70467;SDS011;57934;51.532;7.684;2024-02-26T08:46:54;6.65;;;4.38;;
70467;SDS011;57934;51.532;7.684;2024-02-26T08:49:20;3.85;;;3.42;;
70467;SDS011;57934;51.532;7.684;2024-02-26T08:51:49;5.47;;;3.50;;
70467;SDS011;57934;51.532;7.684;2024-02-26T08:54:14;4.20;;;3.28;;
70467;SDS011;57934;51.532;7.684;2024-02-26T08:56:41;3.45;;;3.08;;
70467;SDS011;57934;51.532;7.684;2024-02-26T08:59:07;3.80;;;2.90;;
70467;SDS011;57934;51.532;7.684;2024-02-26T09:01:33;5.25;;;3.47;;
70467;SDS011;57934;51.532;7.684;2024-02-26T09:03:59;3.45;;;3.15;;
70467;SDS011;57934;51.532;7.684;2024-02-26T09:06:25;5.10;;;3.35;;
70467;SDS011;57934;51.532;7.684;2024-02-26T09:08:52;5.82;;;3.53;;
70467;SDS011;57934;51.532;7.684;2024-02-26T09:11:18;4.38;;;3.42;;
70467;SDS011;57934;51.532;7.684;2024-02-26T09:13:44;5.22;;;3.30;;
70467;SDS011;57934;51.532;7.684;2024-02-26T09:16:11;4.32;;;3.33;;
70467;SDS011;57934;51.532;7.684;2024-02-26T09:18:37;5.53;;;3.78;;
70467;SDS011;57934;51.532;7.684;2024-02-26T09:21:04;6.35;;;3.80;;
70467;SDS011;57934;51.532;7.684;2024-02-26T09:23:31;9.85;;;3.70;;
70467;SDS011;57934;51.532;7.684;2024-02-26T09:25:58;5.47;;;4.10;;
70467;SDS011;57934;51.532;7.684;2024-02-26T09:28:24;5.20;;;4.20;;
70467;SDS011;57934;51.532;7.684;2024-02-26T09:30:50;4.97;;;4.20;;
70467;SDS011;57934;51.532;7.684;2024-02-26T09:33:17;4.68;;;3.95;;
70467;SDS011;57934;51.532;7.684;2024-02-26T09:35:43;4.55;;;4.05;;
70467;SDS011;57934;51.532;7.684;2024-02-26T09:38:09;6.15;;;4.38;;
70467;SDS011;57934;51.532;7.684;2024-02-26T09:40:35;6.07;;;4.72;;
70467;SDS011;57934;51.532;7.684;2024-02-26T09:43:03;7.32;;;4.70;;
70467;SDS011;57934;51.532;7.684;2024-02-26T09:45:30;4.38;;;3.92;;
70467;SDS011;57934;51.532;7.684;2024-02-26T09:47:58;5.13;;;3.55;;
70467;SDS011;57934;51.532;7.684;2024-02-26T09:50:24;4.75;;;3.78;;
70467;SDS011;57934;51.532;7.684;2024-02-26T09:52:52;7.78;;;3.22;;
70467;SDS011;57934;51.532;7.684;2024-02-26T09:55:19;5.82;;;3.45;;
70467;SDS011;57934;51.532;7.684;2024-02-26T09:57:46;6.45;;;3.55;;
70467;SDS011;57934;51.532;7.684;2024-02-26T10:00:17;4.07;;;3.22;;
70467;SDS011;57934;51.532;7.684;2024-02-26T10:02:47;4.40;;;3.30;;
70467;SDS011;57934;51.532;7.684;2024-02-26T10:05:15;7.70;;;3.63;;
70467;SDS011;57934;51.532;7.684;2024-02-26T10:07:44;5.10;;;3.70;;
70467;SDS011;57934;51.532;7.684;2024-02-26T10:10:12;5.13;;;3.83;;
70467;SDS011;57934;51.532;7.684;2024-02-26T10:12:39;7.80;;;4.25;;
70467;SDS011;57934;51.532;7.684;2024-02-26T10:15:06;5.78;;;3.88;;
70467;SDS011;57934;51.532;7.684;2024-02-26T10:17:32;7.13;;;4.35;;
70467;SDS011;57934;51.532;7.684;2024-02-26T10:20:15;7.78;;;5.10;;
70467;SDS011;57934;51.532;7.684;2024-02-26T10:22:47;8.48;;;5.68;;
70467;SDS011;57934;51.532;7.684;2024-02-26T10:25:13;6.88;;;4.72;;
70467;SDS011;57934;51.532;7.684;2024-02-26T10:27:42;7.10;;;4.75;;
70467;SDS011;57934;51.532;7.684;2024-02-26T10:30:21;8.90;;;4.93;;
70467;SDS011;57934;51.532;7.684;2024-02-26T10:32:51;9.85;;;5.38;;
70467;SDS011;57934;51.532;7.684;2024-02-26T10:35:17;5.70;;;4.38;;
70467;SDS011;57934;51.532;7.684;2024-02-26T10:37:46;6.60;;;4.65;;
70467;SDS011;57934;51.532;7.684;2024-02-26T10:40:14;8.93;;;5.28;;
70467;SDS011;57934;51.532;7.684;2024-02-26T10:42:41;7.95;;;5.60;;
70467;SDS011;57934;51.532;7.684;2024-02-26T10:45:08;8.48;;;5.03;;
70467;SDS011;57934;51.532;7.684;2024-02-26T10:47:35;9.40;;;6.50;;
70467;SDS011;57934;51.532;7.684;2024-02-26T10:50:02;11.40;;;5.38;;
70467;SDS011;57934;51.532;7.684;2024-02-26T10:52:33;9.43;;;5.82;;
70467;SDS011;57934;51.532;7.684;2024-02-26T10:55:01;7.78;;;5.93;;
70467;SDS011;57934;51.532;7.684;2024-02-26T10:57:32;10.00;;;5.25;;
70467;SDS011;57934;51.532;7.684;2024-02-26T11:00:05;6.43;;;5.18;;
70467;SDS011;57934;51.532;7.684;2024-02-26T11:02:32;9.60;;;6.32;;
70467;SDS011;57934;51.532;7.684;2024-02-26T11:05:02;9.80;;;6.72;;
70467;SDS011;57934;51.532;7.684;2024-02-26T11:07:32;9.40;;;7.45;;
70467;SDS011;57934;51.532;7.684;2024-02-26T11:10:02;9.90;;;6.70;;
70467;SDS011;57934;51.532;7.684;2024-02-26T11:12:30;8.73;;;5.57;;
70467;SDS011;57934;51.532;7.684;2024-02-26T11:14:57;6.75;;;5.10;;
70467;SDS011;57934;51.532;7.684;2024-02-26T11:17:26;4.18;;;3.78;;
70467;SDS011;57934;51.532;7.684;2024-02-26T11:19:57;6.05;;;4.55;;
70467;SDS011;57934;51.532;7.684;2024-02-26T11:22:25;5.80;;;4.18;;
70467;SDS011;57934;51.532;7.684;2024-02-26T11:24:54;6.47;;;5.15;;
70467;SDS011;57934;51.532;7.684;2024-02-26T11:27:29;6.85;;;4.55;;
70467;SDS011;57934;51.532;7.684;2024-02-26T11:29:58;6.03;;;4.43;;
70467;SDS011;57934;51.532;7.684;2024-02-26T11:32:27;7.20;;;4.93;;
70467;SDS011;57934;51.532;7.684;2024-02-26T11:34:56;6.35;;;4.78;;
70467;SDS011;57934;51.532;7.684;2024-02-26T11:37:23;5.93;;;4.93;;
70467;SDS011;57934;51.532;7.684;2024-02-26T11:39:51;5.75;;;4.03;;
70467;SDS011;57934;51.532;7.684;2024-02-26T11:42:18;4.28;;;3.20;;
70467;SDS011;57934;51.532;7.684;2024-02-26T11:44:49;5.93;;;3.42;;
70467;SDS011;57934;51.532;7.684;2024-02-26T11:47:20;4.22;;;3.28;;
70467;SDS011;57934;51.532;7.684;2024-02-26T11:49:47;4.55;;;3.17;;
70467;SDS011;57934;51.532;7.684;2024-02-26T11:52:14;4.45;;;3.63;;
70467;SDS011;57934;51.532;7.684;2024-02-26T11:57:26;4.90;;;3.55;;
70467;SDS011;57934;51.532;7.684;2024-02-26T11:59:54;4.53;;;3.60;;
70467;SDS011;57934;51.532;7.684;2024-02-26T12:05:10;4.45;;;3.58;;
70467;SDS011;57934;51.532;7.684;2024-02-26T12:07:52;5.57;;;3.72;;
70467;SDS011;57934;51.532;7.684;2024-02-26T12:10:24;6.40;;;4.20;;
70467;SDS011;57934;51.532;7.684;2024-02-26T12:13:15;7.57;;;4.43;;
70467;SDS011;57934;51.532;7.684;2024-02-26T12:15:44;6.22;;;4.28;;
70467;SDS011;57934;51.532;7.684;2024-02-26T12:18:22;5.28;;;4.28;;
70467;SDS011;57934;51.532;7.684;2024-02-26T12:21:03;6.18;;;4.82;;
70467;SDS011;57934;51.532;7.684;2024-02-26T12:23:31;7.05;;;5.03;;
70467;SDS011;57934;51.532;7.684;2024-02-26T12:26:00;7.95;;;4.95;;
70467;SDS011;57934;51.532;7.684;2024-02-26T12:28:29;8.90;;;6.40;;
70467;SDS011;57934;51.532;7.684;2024-02-26T12:30:56;8.73;;;5.22;;
70467;SDS011;57934;51.532;7.684;2024-02-26T12:33:25;8.00;;;5.80;;
70467;SDS011;57934;51.532;7.684;2024-02-26T12:35:53;8.25;;;5.40;;
70467;SDS011;57934;51.532;7.684;2024-02-26T12:38:19;6.95;;;5.40;;
70467;SDS011;57934;51.532;7.684;2024-02-26T12:40:46;8.80;;;5.85;;
70467;SDS011;57934;51.532;7.684;2024-02-26T12:43:14;8.05;;;5.95;;
70467;SDS011;57934;51.532;7.684;2024-02-26T12:45:41;12.52;;;6.25;;
70467;SDS011;57934;51.532;7.684;2024-02-26T12:48:08;9.30;;;6.03;;
70467;SDS011;57934;51.532;7.684;2024-02-26T12:50:36;7.78;;;5.63;;
70467;SDS011;57934;51.532;7.684;2024-02-26T12:53:02;8.05;;;5.97;;
70467;SDS011;57934;51.532;7.684;2024-02-26T12:55:28;7.32;;;5.68;;
70467;SDS011;57934;51.532;7.684;2024-02-26T12:57:54;10.15;;;5.95;;
70467;SDS011;57934;51.532;7.684;2024-02-26T13:00:26;7.93;;;5.38;;
70467;SDS011;57934;51.532;7.684;2024-02-26T13:02:54;8.55;;;5.68;;
70467;SDS011;57934;51.532;7.684;2024-02-26T13:05:21;8.23;;;5.85;;
70467;SDS011;57934;51.532;7.684;2024-02-26T13:07:48;7.45;;;5.32;;
70467;SDS011;57934;51.532;7.684;2024-02-26T13:10:15;7.03;;;5.32;;
70467;SDS011;57934;51.532;7.684;2024-02-26T13:12:44;9.45;;;5.32;;
70467;SDS011;57934;51.532;7.684;2024-02-26T13:15:15;9.02;;;5.70;;
70467;SDS011;57934;51.532;7.684;2024-02-26T13:17:43;6.13;;;5.40;;
70467;SDS011;57934;51.532;7.684;2024-02-26T13:20:09;7.45;;;5.70;;
70467;SDS011;57934;51.532;7.684;2024-02-26T13:22:36;6.10;;;4.85;;
70467;SDS011;57934;51.532;7.684;2024-02-26T13:25:03;6.88;;;5.55;;
70467;SDS011;57934;51.532;7.684;2024-02-26T13:27:29;6.53;;;4.75;;
70467;SDS011;57934;51.532;7.684;2024-02-26T13:30:11;6.50;;;4.82;;
70467;SDS011;57934;51.532;7.684;2024-02-26T13:32:39;7.40;;;5.07;;
70467;SDS011;57934;51.532;7.684;2024-02-26T13:37:33;11.32;;;4.68;;
70467;SDS011;57934;51.532;7.684;2024-02-26T13:40:00;7.07;;;5.18;;
70467;SDS011;57934;51.532;7.684;2024-02-26T13:42:30;7.78;;;4.93;;
70467;SDS011;57934;51.532;7.684;2024-02-26T13:44:56;6.82;;;5.10;;
70467;SDS011;57934;51.532;7.684;2024-02-26T13:47:22;6.13;;;5.53;;
70467;SDS011;57934;51.532;7.684;2024-02-26T13:49:48;7.28;;;5.10;;
70467;SDS011;57934;51.532;7.684;2024-02-26T13:52:14;7.80;;;5.38;;
70467;SDS011;57934;51.532;7.684;2024-02-26T13:54:40;8.27;;;4.95;;
70467;SDS011;57934;51.532;7.684;2024-02-26T13:57:06;7.97;;;5.70;;
70467;SDS011;57934;51.532;7.684;2024-02-26T13:59:34;6.82;;;5.50;;
70467;SDS011;57934;51.532;7.684;2024-02-26T14:02:00;11.35;;;5.82;;
70467;SDS011;57934;51.532;7.684;2024-02-26T14:04:26;9.45;;;5.85;;
70467;SDS011;57934;51.532;7.684;2024-02-26T14:06:53;8.90;;;5.28;;
70467;SDS011;57934;51.532;7.684;2024-02-26T14:09:19;8.10;;;5.75;;
70467;SDS011;57934;51.532;7.684;2024-02-26T14:11:46;8.63;;;5.32;;
70467;SDS011;57934;51.532;7.684;2024-02-26T14:14:12;7.03;;;5.80;;
70467;SDS011;57934;51.532;7.684;2024-02-26T14:16:38;6.45;;;5.53;;
70467;SDS011;57934;51.532;7.684;2024-02-26T14:19:04;9.52;;;5.95;;
70467;SDS011;57934;51.532;7.684;2024-02-26T14:21:31;9.02;;;6.07;;
70467;SDS011;57934;51.532;7.684;2024-02-26T14:23:57;7.38;;;5.78;;
70467;SDS011;57934;51.532;7.684;2024-02-26T14:26:23;6.93;;;5.55;;
70467;SDS011;57934;51.532;7.684;2024-02-26T14:28:49;7.38;;;5.60;;
70467;SDS011;57934;51.532;7.684;2024-02-26T14:31:19;7.82;;;5.50;;
70467;SDS011;57934;51.532;7.684;2024-02-26T14:33:45;7.35;;;5.55;;
70467;SDS011;57934;51.532;7.684;2024-02-26T14:36:11;7.55;;;5.90;;
70467;SDS011;57934;51.532;7.684;2024-02-26T14:38:37;7.25;;;5.50;;
70467;SDS011;57934;51.532;7.684;2024-02-26T14:41:05;7.32;;;5.32;;
70467;SDS011;57934;51.532;7.684;2024-02-26T14:43:31;10.02;;;5.43;;
70467;SDS011;57934;51.532;7.684;2024-02-26T14:45:58;6.07;;;4.90;;
70467;SDS011;57934;51.532;7.684;2024-02-26T14:48:27;8.65;;;5.35;;
70467;SDS011;57934;51.532;7.684;2024-02-26T14:50:55;8.13;;;4.70;;
70467;SDS011;57934;51.532;7.684;2024-02-26T14:53:21;8.95;;;5.00;;
70467;SDS011;57934;51.532;7.684;2024-02-26T14:55:47;5.90;;;4.40;;